sensor_id;sensor_type;location;lat;lon;timestamp;P1;durP1;ratioP1;P2;durP2;ratioP2
29574;SDS011;16507;51.046;6.406;2022-08-14T00:01:39;8.80;;;2.40;;
29574;SDS011;16507;51.046;6.406;2022-08-14T00:04:05;8.43;;;2.30;;
29574;SDS011;16507;51.046;6.406;2022-08-14T00:06:30;6.28;;;2.30;;
29574;SDS011;16507;51.046;6.406;2022-08-14T00:08:56;10.63;;;2.38;;
29574;SDS011;16507;51.046;6.406;2022-08-14T00:11:22;5.80;;;2.80;;
29574;SDS011;16507;51.046;6.406;2022-08-14T00:13:47;4.28;;;2.10;;
29574;SDS011;16507;51.046;6.406;2022-08-14T00:16:13;2.42;;;2.22;;
29574;SDS011;16507;51.046;6.406;2022-08-14T00:18:39;4.30;;;2.42;;
29574;SDS011;16507;51.046;6.406;2022-08-14T00:21:05;2.25;;;2.05;;
29574;SDS011;16507;51.046;6.406;2022-08-14T00:23:32;4.40;;;2.50;;
29574;SDS011;16507;51.046;6.406;2022-08-14T00:25:58;2.53;;;2.28;;
29574;SDS011;16507;51.046;6.406;2022-08-14T00:28:24;4.03;;;2.67;;
29574;SDS011;16507;51.046;6.406;2022-08-14T00:30:52;3.58;;;2.60;;
29574;SDS011;16507;51.046;6.406;2022-08-14T00:33:21;5.38;;;2.60;;
29574;SDS011;16507;51.046;6.406;2022-08-14T00:35:51;2.58;;;2.38;;
29574;SDS011;16507;51.046;6.406;2022-08-14T00:38:17;4.85;;;2.38;;
29574;SDS011;16507;51.046;6.406;2022-08-14T00:40:44;5.88;;;2.22;;
29574;SDS011;16507;51.046;6.406;2022-08-14T00:43:10;3.45;;;2.38;;
29574;SDS011;16507;51.046;6.406;2022-08-14T00:45:36;2.88;;;2.35;;
29574;SDS011;16507;51.046;6.406;2022-08-14T00:48:02;4.43;;;2.42;;
29574;SDS011;16507;51.046;6.406;2022-08-14T00:50:28;5.88;;;2.40;;
29574;SDS011;16507;51.046;6.406;2022-08-14T00:52:55;4.13;;;2.53;;
29574;SDS011;16507;51.046;6.406;2022-08-14T00:55:25;3.28;;;2.70;;
29574;SDS011;16507;51.046;6.406;2022-08-14T00:57:52;3.63;;;2.15;;
29574;SDS011;16507;51.046;6.406;2022-08-14T01:00:38;2.53;;;2.05;;
29574;SDS011;16507;51.046;6.406;2022-08-14T01:03:05;4.45;;;2.47;;
29574;SDS011;16507;51.046;6.406;2022-08-14T01:05:32;3.30;;;3.00;;
29574;SDS011;16507;51.046;6.406;2022-08-14T01:07:58;2.75;;;2.50;;
29574;SDS011;16507;51.046;6.406;2022-08-14T01:10:25;3.00;;;2.50;;
29574;SDS011;16507;51.046;6.406;2022-08-14T01:13:14;4.63;;;2.80;;
29574;SDS011;16507;51.046;6.406;2022-08-14T01:15:43;4.78;;;2.25;;
29574;SDS011;16507;51.046;6.406;2022-08-14T01:18:10;5.53;;;2.40;;
29574;SDS011;16507;51.046;6.406;2022-08-14T01:20:55;10.80;;;3.05;;
29574;SDS011;16507;51.046;6.406;2022-08-14T01:25:54;6.93;;;2.67;;
29574;SDS011;16507;51.046;6.406;2022-08-14T01:28:22;3.80;;;2.72;;
29574;SDS011;16507;51.046;6.406;2022-08-14T01:30:48;13.57;;;3.22;;
29574;SDS011;16507;51.046;6.406;2022-08-14T01:33:14;7.30;;;2.67;;
29574;SDS011;16507;51.046;6.406;2022-08-14T01:35:40;2.60;;;2.40;;
29574;SDS011;16507;51.046;6.406;2022-08-14T01:38:11;6.03;;;2.70;;
29574;SDS011;16507;51.046;6.406;2022-08-14T01:40:39;6.25;;;2.53;;
29574;SDS011;16507;51.046;6.406;2022-08-14T01:43:11;12.00;;;3.08;;
29574;SDS011;16507;51.046;6.406;2022-08-14T01:45:39;2.58;;;2.38;;
29574;SDS011;16507;51.046;6.406;2022-08-14T01:48:06;2.90;;;2.70;;
29574;SDS011;16507;51.046;6.406;2022-08-14T01:50:32;3.55;;;2.40;;
29574;SDS011;16507;51.046;6.406;2022-08-14T01:52:58;3.30;;;3.00;;
29574;SDS011;16507;51.046;6.406;2022-08-14T01:55:24;5.00;;;2.80;;
29574;SDS011;16507;51.046;6.406;2022-08-14T01:57:55;2.92;;;2.72;;
29574;SDS011;16507;51.046;6.406;2022-08-14T02:00:22;3.03;;;2.83;;
29574;SDS011;16507;51.046;6.406;2022-08-14T02:02:48;2.83;;;2.63;;
29574;SDS011;16507;51.046;6.406;2022-08-14T02:05:14;4.32;;;3.20;;
29574;SDS011;16507;51.046;6.406;2022-08-14T02:07:41;2.90;;;2.70;;
29574;SDS011;16507;51.046;6.406;2022-08-14T02:10:09;4.60;;;2.58;;
29574;SDS011;16507;51.046;6.406;2022-08-14T02:12:36;3.20;;;3.00;;
29574;SDS011;16507;51.046;6.406;2022-08-14T02:15:04;5.68;;;2.95;;
29574;SDS011;16507;51.046;6.406;2022-08-14T02:17:33;9.57;;;3.17;;
29574;SDS011;16507;51.046;6.406;2022-08-14T02:19:59;9.90;;;3.22;;
29574;SDS011;16507;51.046;6.406;2022-08-14T02:22:25;8.80;;;3.97;;
29574;SDS011;16507;51.046;6.406;2022-08-14T02:24:51;25.23;;;4.05;;
29574;SDS011;16507;51.046;6.406;2022-08-14T02:27:17;5.10;;;3.30;;
29574;SDS011;16507;51.046;6.406;2022-08-14T02:29:44;3.10;;;2.90;;
29574;SDS011;16507;51.046;6.406;2022-08-14T02:32:10;4.55;;;3.35;;
29574;SDS011;16507;51.046;6.406;2022-08-14T02:34:36;3.40;;;3.20;;
29574;SDS011;16507;51.046;6.406;2022-08-14T02:37:09;11.23;;;4.20;;
29574;SDS011;16507;51.046;6.406;2022-08-14T02:39:42;7.50;;;3.47;;
29574;SDS011;16507;51.046;6.406;2022-08-14T02:42:11;3.25;;;2.97;;
29574;SDS011;16507;51.046;6.406;2022-08-14T02:44:42;4.40;;;4.00;;
29574;SDS011;16507;51.046;6.406;2022-08-14T02:47:08;5.13;;;3.58;;
29574;SDS011;16507;51.046;6.406;2022-08-14T02:49:35;4.53;;;3.20;;
29574;SDS011;16507;51.046;6.406;2022-08-14T02:52:01;4.75;;;3.55;;
29574;SDS011;16507;51.046;6.406;2022-08-14T02:54:31;5.25;;;3.85;;
29574;SDS011;16507;51.046;6.406;2022-08-14T02:56:58;7.50;;;4.70;;
29574;SDS011;16507;51.046;6.406;2022-08-14T02:59:25;8.68;;;3.50;;
29574;SDS011;16507;51.046;6.406;2022-08-14T03:01:55;13.02;;;3.70;;
29574;SDS011;16507;51.046;6.406;2022-08-14T03:04:21;7.03;;;4.72;;
29574;SDS011;16507;51.046;6.406;2022-08-14T03:06:48;5.30;;;4.00;;
29574;SDS011;16507;51.046;6.406;2022-08-14T03:09:14;4.00;;;3.70;;
29574;SDS011;16507;51.046;6.406;2022-08-14T03:11:40;7.60;;;3.78;;
29574;SDS011;16507;51.046;6.406;2022-08-14T03:14:08;8.68;;;4.18;;
29574;SDS011;16507;51.046;6.406;2022-08-14T03:16:36;5.63;;;3.97;;
29574;SDS011;16507;51.046;6.406;2022-08-14T03:19:03;6.97;;;3.80;;
29574;SDS011;16507;51.046;6.406;2022-08-14T03:21:31;11.43;;;4.68;;
29574;SDS011;16507;51.046;6.406;2022-08-14T03:23:58;6.00;;;4.28;;
29574;SDS011;16507;51.046;6.406;2022-08-14T03:26:33;5.28;;;4.47;;
29574;SDS011;16507;51.046;6.406;2022-08-14T03:28:59;10.55;;;4.15;;
29574;SDS011;16507;51.046;6.406;2022-08-14T03:31:26;5.15;;;4.65;;
29574;SDS011;16507;51.046;6.406;2022-08-14T03:33:52;14.90;;;4.88;;
29574;SDS011;16507;51.046;6.406;2022-08-14T03:36:19;14.00;;;4.82;;
29574;SDS011;16507;51.046;6.406;2022-08-14T03:38:46;27.58;;;5.68;;
29574;SDS011;16507;51.046;6.406;2022-08-14T03:41:17;16.92;;;5.07;;
29574;SDS011;16507;51.046;6.406;2022-08-14T03:46:16;26.17;;;5.25;;
29574;SDS011;16507;51.046;6.406;2022-08-14T03:48:43;50.15;;;6.25;;
29574;SDS011;16507;51.046;6.406;2022-08-14T03:51:09;26.38;;;5.35;;
29574;SDS011;16507;51.046;6.406;2022-08-14T03:53:38;45.80;;;6.35;;
29574;SDS011;16507;51.046;6.406;2022-08-14T03:56:09;13.52;;;5.00;;
29574;SDS011;16507;51.046;6.406;2022-08-14T03:58:38;5.30;;;4.82;;
29574;SDS011;16507;51.046;6.406;2022-08-14T04:01:06;49.20;;;7.05;;
29574;SDS011;16507;51.046;6.406;2022-08-14T04:03:33;37.42;;;6.50;;
29574;SDS011;16507;51.046;6.406;2022-08-14T04:05:59;24.52;;;6.10;;
29574;SDS011;16507;51.046;6.406;2022-08-14T04:08:25;15.30;;;5.43;;
29574;SDS011;16507;51.046;6.406;2022-08-14T04:10:50;8.23;;;5.03;;
29574;SDS011;16507;51.046;6.406;2022-08-14T04:13:16;13.93;;;5.35;;
29574;SDS011;16507;51.046;6.406;2022-08-14T04:15:45;9.07;;;5.72;;
29574;SDS011;16507;51.046;6.406;2022-08-14T04:18:12;32.22;;;7.30;;
29574;SDS011;16507;51.046;6.406;2022-08-14T04:20:38;15.05;;;5.68;;
29574;SDS011;16507;51.046;6.406;2022-08-14T04:23:06;20.35;;;6.28;;
29574;SDS011;16507;51.046;6.406;2022-08-14T04:25:35;18.35;;;5.63;;
29574;SDS011;16507;51.046;6.406;2022-08-14T04:28:02;24.40;;;6.75;;
29574;SDS011;16507;51.046;6.406;2022-08-14T04:30:33;8.80;;;5.40;;
29574;SDS011;16507;51.046;6.406;2022-08-14T04:33:02;6.00;;;5.45;;
29574;SDS011;16507;51.046;6.406;2022-08-14T04:35:31;5.50;;;5.10;;
29574;SDS011;16507;51.046;6.406;2022-08-14T04:37:56;16.23;;;5.90;;
29574;SDS011;16507;51.046;6.406;2022-08-14T04:40:41;5.53;;;4.63;;
29574;SDS011;16507;51.046;6.406;2022-08-14T04:43:25;8.85;;;5.50;;
29574;SDS011;16507;51.046;6.406;2022-08-14T04:45:59;10.30;;;4.78;;
29574;SDS011;16507;51.046;6.406;2022-08-14T04:48:26;9.15;;;5.38;;
29574;SDS011;16507;51.046;6.406;2022-08-14T04:50:53;5.38;;;4.97;;
29574;SDS011;16507;51.046;6.406;2022-08-14T04:53:22;31.50;;;7.13;;
29574;SDS011;16507;51.046;6.406;2022-08-14T04:55:49;7.68;;;4.60;;
29574;SDS011;16507;51.046;6.406;2022-08-14T04:58:17;5.40;;;5.00;;
29574;SDS011;16507;51.046;6.406;2022-08-14T05:03:18;14.50;;;5.00;;
29574;SDS011;16507;51.046;6.406;2022-08-14T05:05:48;5.15;;;4.55;;
29574;SDS011;16507;51.046;6.406;2022-08-14T05:08:16;6.10;;;5.05;;
29574;SDS011;16507;51.046;6.406;2022-08-14T05:10:43;5.25;;;4.45;;
29574;SDS011;16507;51.046;6.406;2022-08-14T05:13:10;4.88;;;4.55;;
29574;SDS011;16507;51.046;6.406;2022-08-14T05:15:37;7.72;;;4.30;;
29574;SDS011;16507;51.046;6.406;2022-08-14T05:18:07;5.20;;;4.70;;
29574;SDS011;16507;51.046;6.406;2022-08-14T05:20:41;4.97;;;4.57;;
29574;SDS011;16507;51.046;6.406;2022-08-14T05:23:09;6.13;;;4.85;;
29574;SDS011;16507;51.046;6.406;2022-08-14T05:25:40;5.00;;;4.57;;
29574;SDS011;16507;51.046;6.406;2022-08-14T05:28:10;7.50;;;4.68;;
29574;SDS011;16507;51.046;6.406;2022-08-14T05:30:45;5.63;;;5.13;;
29574;SDS011;16507;51.046;6.406;2022-08-14T05:33:13;8.88;;;5.18;;
29574;SDS011;16507;51.046;6.406;2022-08-14T05:35:40;4.68;;;4.30;;
29574;SDS011;16507;51.046;6.406;2022-08-14T05:38:08;7.78;;;4.68;;
29574;SDS011;16507;51.046;6.406;2022-08-14T05:40:38;12.30;;;4.82;;
29574;SDS011;16507;51.046;6.406;2022-08-14T05:43:05;6.35;;;4.15;;
29574;SDS011;16507;51.046;6.406;2022-08-14T05:45:31;6.50;;;4.60;;
29574;SDS011;16507;51.046;6.406;2022-08-14T05:47:59;4.70;;;4.40;;
29574;SDS011;16507;51.046;6.406;2022-08-14T05:50:26;8.38;;;4.70;;
29574;SDS011;16507;51.046;6.406;2022-08-14T05:52:52;5.35;;;4.57;;
29574;SDS011;16507;51.046;6.406;2022-08-14T05:55:18;4.43;;;4.10;;
29574;SDS011;16507;51.046;6.406;2022-08-14T05:57:55;5.32;;;4.53;;
29574;SDS011;16507;51.046;6.406;2022-08-14T06:00:30;4.45;;;4.22;;
29574;SDS011;16507;51.046;6.406;2022-08-14T06:03:01;4.90;;;4.50;;
29574;SDS011;16507;51.046;6.406;2022-08-14T06:05:28;4.50;;;4.07;;
29574;SDS011;16507;51.046;6.406;2022-08-14T06:07:56;5.10;;;4.63;;
29574;SDS011;16507;51.046;6.406;2022-08-14T06:10:22;7.07;;;4.53;;
29574;SDS011;16507;51.046;6.406;2022-08-14T06:12:48;12.10;;;5.05;;
29574;SDS011;16507;51.046;6.406;2022-08-14T06:15:14;5.00;;;4.55;;
29574;SDS011;16507;51.046;6.406;2022-08-14T06:17:47;5.18;;;4.68;;
29574;SDS011;16507;51.046;6.406;2022-08-14T06:20:14;10.30;;;5.30;;
29574;SDS011;16507;51.046;6.406;2022-08-14T06:22:40;5.05;;;4.45;;
29574;SDS011;16507;51.046;6.406;2022-08-14T06:25:07;14.80;;;4.57;;
29574;SDS011;16507;51.046;6.406;2022-08-14T06:27:38;11.82;;;5.30;;
29574;SDS011;16507;51.046;6.406;2022-08-14T06:30:06;7.32;;;4.68;;
29574;SDS011;16507;51.046;6.406;2022-08-14T06:32:33;8.48;;;5.38;;
29574;SDS011;16507;51.046;6.406;2022-08-14T06:34:59;10.45;;;5.07;;
29574;SDS011;16507;51.046;6.406;2022-08-14T06:37:24;21.90;;;5.70;;
29574;SDS011;16507;51.046;6.406;2022-08-14T06:39:51;6.07;;;4.80;;
29574;SDS011;16507;51.046;6.406;2022-08-14T06:42:17;11.90;;;4.95;;
29574;SDS011;16507;51.046;6.406;2022-08-14T06:44:43;5.35;;;4.90;;
29574;SDS011;16507;51.046;6.406;2022-08-14T06:47:09;10.13;;;4.88;;
29574;SDS011;16507;51.046;6.406;2022-08-14T06:49:35;7.75;;;4.97;;
29574;SDS011;16507;51.046;6.406;2022-08-14T06:52:03;5.55;;;4.97;;
29574;SDS011;16507;51.046;6.406;2022-08-14T06:54:28;6.05;;;4.95;;
29574;SDS011;16507;51.046;6.406;2022-08-14T06:56:55;5.25;;;4.90;;
29574;SDS011;16507;51.046;6.406;2022-08-14T06:59:21;7.97;;;4.70;;
29574;SDS011;16507;51.046;6.406;2022-08-14T07:01:47;6.75;;;5.15;;
29574;SDS011;16507;51.046;6.406;2022-08-14T07:04:31;10.35;;;5.50;;
29574;SDS011;16507;51.046;6.406;2022-08-14T07:07:15;5.47;;;4.60;;
29574;SDS011;16507;51.046;6.406;2022-08-14T07:09:40;4.97;;;4.68;;
29574;SDS011;16507;51.046;6.406;2022-08-14T07:12:06;4.65;;;4.28;;
29574;SDS011;16507;51.046;6.406;2022-08-14T07:14:32;4.85;;;4.43;;
29574;SDS011;16507;51.046;6.406;2022-08-14T07:16:58;4.63;;;4.18;;
29574;SDS011;16507;51.046;6.406;2022-08-14T07:19:24;11.45;;;5.13;;
29574;SDS011;16507;51.046;6.406;2022-08-14T07:21:49;7.18;;;4.93;;
29574;SDS011;16507;51.046;6.406;2022-08-14T07:24:15;5.60;;;4.35;;
29574;SDS011;16507;51.046;6.406;2022-08-14T07:26:42;6.45;;;4.65;;
29574;SDS011;16507;51.046;6.406;2022-08-14T07:29:07;7.75;;;4.38;;
29574;SDS011;16507;51.046;6.406;2022-08-14T07:31:33;5.63;;;4.60;;
29574;SDS011;16507;51.046;6.406;2022-08-14T07:33:58;8.63;;;4.53;;
29574;SDS011;16507;51.046;6.406;2022-08-14T07:36:24;45.40;;;5.57;;
29574;SDS011;16507;51.046;6.406;2022-08-14T07:38:51;6.95;;;4.35;;
29574;SDS011;16507;51.046;6.406;2022-08-14T07:41:17;5.07;;;4.30;;
29574;SDS011;16507;51.046;6.406;2022-08-14T07:43:43;4.78;;;4.50;;
29574;SDS011;16507;51.046;6.406;2022-08-14T07:46:09;4.88;;;4.32;;
29574;SDS011;16507;51.046;6.406;2022-08-14T07:48:38;4.45;;;4.15;;
29574;SDS011;16507;51.046;6.406;2022-08-14T07:51:05;7.60;;;4.47;;
29574;SDS011;16507;51.046;6.406;2022-08-14T07:53:31;9.68;;;5.03;;
29574;SDS011;16507;51.046;6.406;2022-08-14T07:55:57;10.98;;;4.90;;
29574;SDS011;16507;51.046;6.406;2022-08-14T07:58:24;10.30;;;4.57;;
29574;SDS011;16507;51.046;6.406;2022-08-14T08:00:52;11.15;;;4.75;;
29574;SDS011;16507;51.046;6.406;2022-08-14T08:03:19;5.22;;;4.75;;
29574;SDS011;16507;51.046;6.406;2022-08-14T08:05:46;8.35;;;4.15;;
29574;SDS011;16507;51.046;6.406;2022-08-14T08:08:12;7.28;;;4.03;;
29574;SDS011;16507;51.046;6.406;2022-08-14T08:10:40;9.65;;;4.45;;
29574;SDS011;16507;51.046;6.406;2022-08-14T08:13:11;5.45;;;4.05;;
29574;SDS011;16507;51.046;6.406;2022-08-14T08:15:40;8.73;;;4.70;;
29574;SDS011;16507;51.046;6.406;2022-08-14T08:18:08;6.07;;;4.13;;
29574;SDS011;16507;51.046;6.406;2022-08-14T08:20:36;8.73;;;4.22;;
29574;SDS011;16507;51.046;6.406;2022-08-14T08:23:05;24.48;;;4.60;;
29574;SDS011;16507;51.046;6.406;2022-08-14T08:25:37;4.88;;;4.40;;
29574;SDS011;16507;51.046;6.406;2022-08-14T08:28:05;8.55;;;4.38;;
29574;SDS011;16507;51.046;6.406;2022-08-14T08:30:37;10.52;;;3.85;;
29574;SDS011;16507;51.046;6.406;2022-08-14T08:33:05;7.65;;;4.50;;
29574;SDS011;16507;51.046;6.406;2022-08-14T08:35:34;10.73;;;4.35;;
29574;SDS011;16507;51.046;6.406;2022-08-14T08:38:02;7.57;;;4.07;;
29574;SDS011;16507;51.046;6.406;2022-08-14T08:40:33;31.52;;;5.50;;
29574;SDS011;16507;51.046;6.406;2022-08-14T08:43:05;7.53;;;4.07;;
29574;SDS011;16507;51.046;6.406;2022-08-14T08:45:33;12.38;;;3.72;;
29574;SDS011;16507;51.046;6.406;2022-08-14T08:48:00;7.38;;;3.83;;
29574;SDS011;16507;51.046;6.406;2022-08-14T08:50:28;6.22;;;3.72;;
29574;SDS011;16507;51.046;6.406;2022-08-14T08:53:00;4.88;;;3.70;;
29574;SDS011;16507;51.046;6.406;2022-08-14T08:55:36;4.72;;;3.53;;
29574;SDS011;16507;51.046;6.406;2022-08-14T08:58:07;9.50;;;4.38;;
29574;SDS011;16507;51.046;6.406;2022-08-14T09:00:35;6.53;;;3.73;;
29574;SDS011;16507;51.046;6.406;2022-08-14T09:03:06;6.90;;;3.53;;
29574;SDS011;16507;51.046;6.406;2022-08-14T09:05:34;4.38;;;3.60;;
29574;SDS011;16507;51.046;6.406;2022-08-14T09:08:10;12.43;;;3.90;;
29574;SDS011;16507;51.046;6.406;2022-08-14T09:10:39;11.93;;;4.03;;
29574;SDS011;16507;51.046;6.406;2022-08-14T09:13:05;10.73;;;3.42;;
29574;SDS011;16507;51.046;6.406;2022-08-14T09:15:31;17.95;;;4.10;;
29574;SDS011;16507;51.046;6.406;2022-08-14T09:17:57;20.02;;;5.63;;
29574;SDS011;16507;51.046;6.406;2022-08-14T09:20:23;30.48;;;4.63;;
29574;SDS011;16507;51.046;6.406;2022-08-14T09:22:49;20.17;;;4.00;;
29574;SDS011;16507;51.046;6.406;2022-08-14T09:25:16;4.22;;;3.35;;
29574;SDS011;16507;51.046;6.406;2022-08-14T09:27:42;5.70;;;3.20;;
29574;SDS011;16507;51.046;6.406;2022-08-14T09:30:08;3.80;;;3.50;;
29574;SDS011;16507;51.046;6.406;2022-08-14T09:32:44;5.35;;;4.35;;
29574;SDS011;16507;51.046;6.406;2022-08-14T09:44:06;12.30;;;3.25;;
29574;SDS011;16507;51.046;6.406;2022-08-14T09:46:53;4.40;;;3.03;;
29574;SDS011;16507;51.046;6.406;2022-08-14T09:49:33;7.95;;;2.80;;
29574;SDS011;16507;51.046;6.406;2022-08-14T09:52:13;30.33;;;3.33;;
29574;SDS011;16507;51.046;6.406;2022-08-14T09:54:44;13.27;;;3.08;;
29574;SDS011;16507;51.046;6.406;2022-08-14T09:57:25;8.18;;;2.75;;
29574;SDS011;16507;51.046;6.406;2022-08-14T09:59:51;6.78;;;3.10;;
29574;SDS011;16507;51.046;6.406;2022-08-14T10:02:27;7.70;;;2.75;;
29574;SDS011;16507;51.046;6.406;2022-08-14T10:05:01;12.77;;;3.13;;
29574;SDS011;16507;51.046;6.406;2022-08-14T10:07:34;18.48;;;3.28;;
29574;SDS011;16507;51.046;6.406;2022-08-14T10:10:01;12.52;;;3.25;;
29574;SDS011;16507;51.046;6.406;2022-08-14T10:12:42;32.33;;;3.67;;
29574;SDS011;16507;51.046;6.406;2022-08-14T10:15:19;15.43;;;3.30;;
29574;SDS011;16507;51.046;6.406;2022-08-14T10:17:47;3.17;;;2.35;;
29574;SDS011;16507;51.046;6.406;2022-08-14T10:20:14;16.00;;;3.50;;
29574;SDS011;16507;51.046;6.406;2022-08-14T10:22:45;20.80;;;3.97;;
29574;SDS011;16507;51.046;6.406;2022-08-14T10:25:11;20.80;;;3.60;;
29574;SDS011;16507;51.046;6.406;2022-08-14T10:27:38;5.75;;;3.15;;
29574;SDS011;16507;51.046;6.406;2022-08-14T10:30:11;3.33;;;3.08;;
29574;SDS011;16507;51.046;6.406;2022-08-14T10:32:42;14.38;;;2.63;;
29574;SDS011;16507;51.046;6.406;2022-08-14T10:35:10;7.45;;;2.58;;
29574;SDS011;16507;51.046;6.406;2022-08-14T10:37:38;21.77;;;3.58;;
29574;SDS011;16507;51.046;6.406;2022-08-14T10:40:05;6.90;;;2.60;;
29574;SDS011;16507;51.046;6.406;2022-08-14T10:42:39;5.05;;;2.47;;
29574;SDS011;16507;51.046;6.406;2022-08-14T10:45:28;3.78;;;2.45;;
29574;SDS011;16507;51.046;6.406;2022-08-14T10:47:55;4.88;;;2.40;;
29574;SDS011;16507;51.046;6.406;2022-08-14T10:50:28;3.97;;;2.80;;
29574;SDS011;16507;51.046;6.406;2022-08-14T10:52:59;7.15;;;2.58;;
29574;SDS011;16507;51.046;6.406;2022-08-14T10:55:33;6.00;;;2.63;;
29574;SDS011;16507;51.046;6.406;2022-08-14T10:58:06;9.98;;;3.17;;
29574;SDS011;16507;51.046;6.406;2022-08-14T11:00:36;3.03;;;2.22;;
29574;SDS011;16507;51.046;6.406;2022-08-14T11:03:05;2.45;;;2.20;;
29574;SDS011;16507;51.046;6.406;2022-08-14T11:05:38;5.07;;;2.20;;
29574;SDS011;16507;51.046;6.406;2022-08-14T11:08:09;18.65;;;2.67;;
29574;SDS011;16507;51.046;6.406;2022-08-14T11:13:20;3.80;;;2.40;;
29574;SDS011;16507;51.046;6.406;2022-08-14T11:15:48;46.60;;;3.92;;
29574;SDS011;16507;51.046;6.406;2022-08-14T11:18:15;20.20;;;2.88;;
29574;SDS011;16507;51.046;6.406;2022-08-14T11:20:45;3.72;;;1.73;;
29574;SDS011;16507;51.046;6.406;2022-08-14T11:23:14;3.65;;;1.60;;
29574;SDS011;16507;51.046;6.406;2022-08-14T11:25:43;1.95;;;1.80;;
29574;SDS011;16507;51.046;6.406;2022-08-14T11:28:12;5.60;;;2.10;;
29574;SDS011;16507;51.046;6.406;2022-08-14T11:30:38;10.25;;;1.95;;
29574;SDS011;16507;51.046;6.406;2022-08-14T11:33:07;4.93;;;1.90;;
29574;SDS011;16507;51.046;6.406;2022-08-14T11:35:33;25.70;;;3.05;;
29574;SDS011;16507;51.046;6.406;2022-08-14T11:38:02;15.15;;;2.28;;
29574;SDS011;16507;51.046;6.406;2022-08-14T11:40:30;12.35;;;2.42;;
29574;SDS011;16507;51.046;6.406;2022-08-14T11:43:01;10.70;;;2.40;;
29574;SDS011;16507;51.046;6.406;2022-08-14T11:45:30;6.60;;;2.28;;
29574;SDS011;16507;51.046;6.406;2022-08-14T11:47:58;2.58;;;2.13;;
29574;SDS011;16507;51.046;6.406;2022-08-14T11:50:29;10.18;;;2.28;;
29574;SDS011;16507;51.046;6.406;2022-08-14T11:52:57;4.40;;;2.25;;
29574;SDS011;16507;51.046;6.406;2022-08-14T11:55:25;9.52;;;2.30;;
29574;SDS011;16507;51.046;6.406;2022-08-14T11:58:01;3.95;;;2.05;;
29574;SDS011;16507;51.046;6.406;2022-08-14T12:00:29;1.90;;;1.80;;
29574;SDS011;16507;51.046;6.406;2022-08-14T12:02:56;3.83;;;2.10;;
29574;SDS011;16507;51.046;6.406;2022-08-14T12:05:31;8.73;;;2.10;;
29574;SDS011;16507;51.046;6.406;2022-08-14T12:08:04;3.30;;;2.05;;
29574;SDS011;16507;51.046;6.406;2022-08-14T12:10:33;4.90;;;2.28;;
29574;SDS011;16507;51.046;6.406;2022-08-14T12:13:13;8.10;;;2.05;;
29574;SDS011;16507;51.046;6.406;2022-08-14T12:15:44;3.90;;;2.00;;
29574;SDS011;16507;51.046;6.406;2022-08-14T12:18:13;10.25;;;2.25;;
29574;SDS011;16507;51.046;6.406;2022-08-14T12:20:40;2.50;;;2.30;;
29574;SDS011;16507;51.046;6.406;2022-08-14T12:23:19;5.07;;;2.22;;
29574;SDS011;16507;51.046;6.406;2022-08-14T12:25:46;4.00;;;1.80;;
29574;SDS011;16507;51.046;6.406;2022-08-14T12:28:13;7.07;;;2.08;;
29574;SDS011;16507;51.046;6.406;2022-08-14T12:30:40;2.10;;;1.63;;
29574;SDS011;16507;51.046;6.406;2022-08-14T12:33:23;2.38;;;1.75;;
29574;SDS011;16507;51.046;6.406;2022-08-14T12:35:55;6.05;;;1.80;;
29574;SDS011;16507;51.046;6.406;2022-08-14T12:38:32;7.40;;;2.38;;
29574;SDS011;16507;51.046;6.406;2022-08-14T12:41:09;11.07;;;2.40;;
29574;SDS011;16507;51.046;6.406;2022-08-14T12:46:26;13.85;;;2.15;;
29574;SDS011;16507;51.046;6.406;2022-08-14T12:49:07;4.80;;;1.90;;
29574;SDS011;16507;51.046;6.406;2022-08-14T12:51:37;2.10;;;1.90;;
29574;SDS011;16507;51.046;6.406;2022-08-14T12:54:14;16.23;;;1.85;;
29574;SDS011;16507;51.046;6.406;2022-08-14T12:56:42;11.80;;;1.90;;
29574;SDS011;16507;51.046;6.406;2022-08-14T12:59:10;22.15;;;2.67;;
29574;SDS011;16507;51.046;6.406;2022-08-14T13:01:36;5.47;;;1.80;;
29574;SDS011;16507;51.046;6.406;2022-08-14T13:04:12;10.20;;;1.83;;
29574;SDS011;16507;51.046;6.406;2022-08-14T13:06:42;5.65;;;1.83;;
29574;SDS011;16507;51.046;6.406;2022-08-14T13:09:10;6.72;;;1.67;;
29574;SDS011;16507;51.046;6.406;2022-08-14T13:11:41;6.22;;;1.52;;
29574;SDS011;16507;51.046;6.406;2022-08-14T13:14:16;1.90;;;1.75;;
29574;SDS011;16507;51.046;6.406;2022-08-14T13:16:43;5.70;;;1.58;;
29574;SDS011;16507;51.046;6.406;2022-08-14T13:19:13;1.80;;;1.70;;
29574;SDS011;16507;51.046;6.406;2022-08-14T13:21:44;11.93;;;1.90;;
29574;SDS011;16507;51.046;6.406;2022-08-14T13:24:14;1.67;;;1.58;;
29574;SDS011;16507;51.046;6.406;2022-08-14T13:26:47;3.45;;;1.50;;
29574;SDS011;16507;51.046;6.406;2022-08-14T13:29:18;2.63;;;2.10;;
29574;SDS011;16507;51.046;6.406;2022-08-14T13:31:48;3.22;;;1.58;;
29574;SDS011;16507;51.046;6.406;2022-08-14T13:34:22;1.85;;;1.75;;
29574;SDS011;16507;51.046;6.406;2022-08-14T13:36:50;6.22;;;1.90;;
29574;SDS011;16507;51.046;6.406;2022-08-14T13:39:17;5.38;;;1.50;;
29574;SDS011;16507;51.046;6.406;2022-08-14T13:41:45;2.20;;;1.90;;
29574;SDS011;16507;51.046;6.406;2022-08-14T13:44:12;1.83;;;1.40;;
29574;SDS011;16507;51.046;6.406;2022-08-14T13:46:39;3.42;;;1.70;;
29574;SDS011;16507;51.046;6.406;2022-08-14T13:49:05;1.65;;;1.55;;
29574;SDS011;16507;51.046;6.406;2022-08-14T13:51:35;3.03;;;2.08;;
29574;SDS011;16507;51.046;6.406;2022-08-14T13:54:08;25.13;;;2.13;;
29574;SDS011;16507;51.046;6.406;2022-08-14T13:56:39;9.93;;;2.10;;
29574;SDS011;16507;51.046;6.406;2022-08-14T13:59:05;2.30;;;1.48;;
29574;SDS011;16507;51.046;6.406;2022-08-14T14:01:32;4.90;;;1.63;;
29574;SDS011;16507;51.046;6.406;2022-08-14T14:03:59;29.88;;;3.22;;
29574;SDS011;16507;51.046;6.406;2022-08-14T14:06:26;12.63;;;2.10;;
29574;SDS011;16507;51.046;6.406;2022-08-14T14:08:54;17.08;;;2.08;;
29574;SDS011;16507;51.046;6.406;2022-08-14T14:11:21;4.15;;;1.73;;
29574;SDS011;16507;51.046;6.406;2022-08-14T14:13:50;4.10;;;1.83;;
29574;SDS011;16507;51.046;6.406;2022-08-14T14:16:17;32.05;;;2.75;;
29574;SDS011;16507;51.046;6.406;2022-08-14T14:18:46;1.73;;;1.63;;
29574;SDS011;16507;51.046;6.406;2022-08-14T14:21:17;44.40;;;3.83;;
29574;SDS011;16507;51.046;6.406;2022-08-14T14:23:43;57.53;;;3.83;;
29574;SDS011;16507;51.046;6.406;2022-08-14T14:26:13;98.57;;;4.97;;
29574;SDS011;16507;51.046;6.406;2022-08-14T14:28:42;25.33;;;2.95;;
29574;SDS011;16507;51.046;6.406;2022-08-14T14:31:14;45.35;;;3.40;;
29574;SDS011;16507;51.046;6.406;2022-08-14T14:33:48;1.90;;;1.73;;
29574;SDS011;16507;51.046;6.406;2022-08-14T14:36:22;1.77;;;1.67;;
29574;SDS011;16507;51.046;6.406;2022-08-14T14:38:58;1.90;;;1.80;;
29574;SDS011;16507;51.046;6.406;2022-08-14T14:41:29;8.88;;;1.90;;
29574;SDS011;16507;51.046;6.406;2022-08-14T14:43:57;1.52;;;1.50;;
29574;SDS011;16507;51.046;6.406;2022-08-14T14:46:23;1.65;;;1.50;;
29574;SDS011;16507;51.046;6.406;2022-08-14T14:48:50;2.00;;;1.77;;
29574;SDS011;16507;51.046;6.406;2022-08-14T14:51:17;2.33;;;1.83;;
29574;SDS011;16507;51.046;6.406;2022-08-14T14:53:46;6.15;;;1.85;;
29574;SDS011;16507;51.046;6.406;2022-08-14T14:56:11;2.65;;;1.70;;
29574;SDS011;16507;51.046;6.406;2022-08-14T14:58:39;2.33;;;1.65;;
29574;SDS011;16507;51.046;6.406;2022-08-14T15:01:07;1.98;;;1.83;;
29574;SDS011;16507;51.046;6.406;2022-08-14T15:03:34;1.88;;;1.77;;
29574;SDS011;16507;51.046;6.406;2022-08-14T15:06:01;4.00;;;1.90;;
29574;SDS011;16507;51.046;6.406;2022-08-14T15:08:27;2.63;;;1.70;;
29574;SDS011;16507;51.046;6.406;2022-08-14T15:10:54;1.80;;;1.70;;
29574;SDS011;16507;51.046;6.406;2022-08-14T15:13:21;1.77;;;1.70;;
29574;SDS011;16507;51.046;6.406;2022-08-14T15:15:46;1.65;;;1.55;;